createdAt,value
2022-12-25T00:01:26.083Z,7.40
2022-12-25T00:03:54.703Z,7.30
2022-12-25T00:06:23.243Z,7.30
2022-12-25T00:08:51.794Z,7.20
2022-12-25T00:11:21.292Z,7.20
2022-12-25T00:13:50.120Z,7.20
2022-12-25T00:16:23.195Z,7.20
2022-12-25T00:18:52.341Z,7.20
2022-12-25T00:21:21.548Z,7.20
2022-12-25T00:23:54.189Z,7.20
2022-12-25T00:26:22.679Z,7.30
2022-12-25T00:28:54.862Z,7.30
2022-12-25T00:31:26.191Z,7.20
2022-12-25T00:33:55.047Z,7.20
2022-12-25T00:36:26.774Z,7.10
2022-12-25T00:38:55.304Z,7.10
2022-12-25T00:41:39.002Z,7.00
2022-12-25T00:44:08.252Z,7.00
2022-12-25T00:46:38.295Z,6.90
2022-12-25T00:49:07.097Z,6.80
2022-12-25T00:51:35.653Z,6.80
2022-12-25T00:54:04.532Z,6.70
2022-12-25T00:56:33.044Z,6.70
2022-12-25T00:59:01.600Z,6.60
2022-12-25T01:01:30.221Z,6.50
2022-12-25T01:04:00.879Z,6.50
2022-12-25T01:06:29.982Z,6.40
2022-12-25T01:09:16.363Z,6.30
2022-12-25T01:11:44.893Z,6.20
2022-12-25T01:14:13.957Z,6.00
2022-12-25T01:16:42.569Z,6.00
2022-12-25T01:19:12.927Z,6.00
2022-12-25T01:21:41.555Z,6.10
2022-12-25T01:24:10.277Z,6.10
2022-12-25T01:26:38.833Z,6.10
2022-12-25T01:29:07.321Z,6.30
2022-12-25T01:31:35.872Z,6.40
2022-12-25T01:34:04.675Z,6.40
2022-12-25T01:36:34.691Z,6.50
2022-12-25T01:39:03.269Z,6.50
2022-12-25T01:41:31.819Z,6.50
2022-12-25T01:44:03.708Z,6.50
2022-12-25T01:46:32.644Z,6.50
2022-12-25T01:49:03.873Z,6.50
2022-12-25T01:51:38.393Z,6.60
2022-12-25T01:54:11.354Z,6.50
2022-12-25T01:56:41.313Z,6.60
2022-12-25T01:59:10.893Z,6.60
2022-12-25T02:01:39.470Z,6.60
2022-12-25T02:04:16.183Z,6.60
2022-12-25T02:06:46.051Z,6.50
2022-12-25T02:09:15.185Z,6.50
2022-12-25T02:11:59.063Z,6.50
2022-12-25T02:14:32.205Z,6.50
2022-12-25T02:17:07.178Z,6.50
2022-12-25T02:19:58.081Z,6.60
2022-12-25T02:22:40.356Z,6.60
2022-12-25T02:25:22.956Z,6.60
2022-12-25T02:28:15.349Z,6.70
2022-12-25T02:30:48.312Z,6.80
2022-12-25T02:33:35.136Z,6.80
2022-12-25T02:36:08.273Z,6.80
2022-12-25T02:39:01.269Z,6.90
2022-12-25T02:41:30.925Z,6.80
2022-12-25T02:44:21.824Z,6.80
2022-12-25T02:47:07.937Z,6.90
2022-12-25T02:49:54.826Z,6.90
2022-12-25T02:52:42.763Z,6.90
2022-12-25T02:55:32.203Z,6.90
2022-12-25T02:58:21.253Z,6.90
2022-12-25T03:01:14.365Z,6.90
2022-12-25T03:04:03.375Z,6.90
2022-12-25T03:06:47.071Z,6.90
2022-12-25T03:09:36.512Z,6.90
2022-12-25T03:12:19.422Z,6.90
2022-12-25T03:15:05.786Z,6.90
2022-12-25T03:17:36.944Z,6.90
2022-12-25T03:20:24.473Z,6.90
2022-12-25T03:23:12.174Z,6.80
2022-12-25T03:25:57.963Z,6.80
2022-12-25T03:28:26.661Z,6.80
2022-12-25T03:31:13.159Z,6.90
2022-12-25T03:34:23.421Z,6.90
2022-12-25T03:37:09.352Z,6.90
2022-12-25T03:40:07.285Z,6.90
2022-12-25T03:43:04.518Z,6.90
2022-12-25T03:46:06.578Z,6.80
2022-12-25T03:48:55.109Z,6.80
2022-12-25T03:52:03.228Z,6.70
2022-12-25T03:54:52.232Z,6.70
2022-12-25T03:57:38.374Z,6.60
2022-12-25T04:00:25.986Z,6.60
2022-12-25T04:03:11.876Z,6.60
2022-12-25T04:05:57.963Z,6.70
2022-12-25T04:08:45.624Z,6.70
2022-12-25T04:11:31.484Z,6.70
2022-12-25T04:14:17.716Z,6.60
2022-12-25T04:17:03.494Z,6.60
2022-12-25T04:19:49.637Z,6.60
2022-12-25T04:22:35.580Z,6.60
2022-12-25T04:25:23.124Z,6.60
2022-12-25T04:28:09.275Z,6.60
2022-12-25T04:30:55.729Z,6.60
2022-12-25T04:33:41.784Z,6.60
2022-12-25T04:36:10.549Z,6.60
2022-12-25T04:38:40.181Z,6.60
2022-12-25T04:41:12.234Z,6.60
2022-12-25T04:43:40.829Z,6.60
2022-12-25T04:46:09.400Z,6.60
2022-12-25T04:48:39.457Z,6.60
2022-12-25T04:51:15.812Z,6.50
2022-12-25T04:53:45.264Z,6.50
2022-12-25T04:56:16.006Z,6.40
2022-12-25T04:58:45.321Z,6.40
2022-12-25T05:01:14.096Z,6.50
2022-12-25T05:03:42.870Z,6.50
2022-12-25T05:06:11.529Z,6.50
2022-12-25T05:08:40.071Z,6.50
2022-12-25T05:11:10.436Z,6.40
2022-12-25T05:13:40.779Z,6.40
2022-12-25T05:16:10.833Z,6.40
2022-12-25T05:18:39.668Z,6.40
2022-12-25T05:21:08.726Z,6.40
2022-12-25T05:23:37.287Z,6.50
2022-12-25T05:26:07.083Z,6.50
2022-12-25T05:28:36.254Z,6.50
2022-12-25T05:31:06.233Z,6.50
2022-12-25T05:33:34.875Z,6.50
2022-12-25T05:36:04.718Z,6.40
2022-12-25T05:38:33.294Z,6.40
2022-12-25T05:41:02.096Z,6.40
2022-12-25T05:43:31.046Z,6.40
2022-12-25T05:45:59.994Z,6.30
2022-12-25T05:48:29.930Z,6.30
2022-12-25T05:50:58.407Z,6.30
2022-12-25T05:53:26.892Z,6.30
2022-12-25T05:55:55.346Z,6.30
2022-12-25T05:58:23.822Z,6.30
2022-12-25T06:00:52.315Z,6.30
2022-12-25T06:03:21.063Z,6.30
2022-12-25T06:05:51.085Z,6.40
2022-12-25T06:08:19.646Z,6.30
2022-12-25T06:10:48.247Z,6.30
2022-12-25T06:13:16.893Z,6.30
2022-12-25T06:15:45.407Z,6.20
2022-12-25T06:18:13.843Z,6.20
2022-12-25T06:20:42.594Z,6.20
2022-12-25T06:23:12.561Z,6.20
2022-12-25T06:25:41.946Z,6.20
2022-12-25T06:28:10.473Z,6.20
2022-12-25T06:30:38.932Z,6.20
2022-12-25T06:33:07.394Z,6.20
2022-12-25T06:35:35.932Z,6.20
2022-12-25T06:38:04.444Z,6.20
2022-12-25T06:40:34.599Z,6.20
2022-12-25T06:43:03.065Z,6.20
2022-12-25T06:45:31.603Z,6.20
2022-12-25T06:48:00.097Z,6.20
2022-12-25T06:50:28.823Z,6.20
2022-12-25T06:52:58.404Z,6.20
2022-12-25T06:55:26.865Z,6.20
2022-12-25T06:57:56.830Z,6.20
2022-12-25T07:00:25.372Z,6.20
2022-12-25T07:02:54.159Z,6.20
2022-12-25T07:05:22.783Z,6.20
2022-12-25T07:07:51.294Z,6.20
2022-12-25T07:10:19.834Z,6.20
2022-12-25T07:12:48.388Z,6.30
2022-12-25T07:15:18.463Z,6.30
2022-12-25T07:17:46.963Z,6.30
2022-12-25T07:20:15.541Z,6.30
2022-12-25T07:22:44.063Z,6.30
2022-12-25T07:25:12.553Z,6.40
2022-12-25T07:27:41.342Z,6.40
2022-12-25T07:30:11.039Z,6.40
2022-12-25T07:32:44.382Z,6.50
2022-12-25T07:35:17.080Z,6.50
2022-12-25T07:37:45.514Z,6.60
2022-12-25T07:40:14.447Z,6.60
2022-12-25T07:42:42.984Z,6.60
2022-12-25T07:45:12.516Z,6.60
2022-12-25T07:47:42.365Z,6.60
2022-12-25T07:50:11.455Z,6.70
2022-12-25T07:52:43.643Z,6.70
2022-12-25T07:55:12.681Z,6.70
2022-12-25T07:57:41.396Z,6.80
2022-12-25T08:00:11.125Z,6.80
2022-12-25T08:02:39.843Z,6.80
2022-12-25T08:05:11.032Z,6.80
2022-12-25T08:07:39.628Z,6.80
2022-12-25T08:10:09.315Z,6.80
2022-12-25T08:12:37.803Z,6.90
2022-12-25T08:15:07.264Z,6.90
2022-12-25T08:17:36.626Z,6.90
2022-12-25T08:20:06.059Z,7.00
2022-12-25T08:22:35.976Z,6.90
2022-12-25T08:25:04.735Z,7.00
2022-12-25T08:27:33.416Z,7.00
2022-12-25T08:30:01.907Z,7.00
2022-12-25T08:32:30.432Z,7.00
2022-12-25T08:34:58.934Z,7.10
2022-12-25T08:37:27.447Z,7.10
2022-12-25T08:39:57.389Z,7.20
2022-12-25T08:42:25.829Z,7.20
2022-12-25T08:44:54.346Z,7.20
2022-12-25T08:47:22.831Z,7.30
2022-12-25T08:49:51.345Z,7.30
2022-12-25T08:52:20.081Z,7.40
2022-12-25T08:54:48.622Z,7.40
2022-12-25T08:57:18.601Z,7.40
2022-12-25T08:59:47.627Z,7.40
2022-12-25T09:02:18.089Z,7.50
2022-12-25T09:04:47.944Z,7.50
2022-12-25T09:07:16.524Z,7.60
2022-12-25T09:09:45.024Z,7.60
2022-12-25T09:12:13.563Z,7.60
2022-12-25T09:14:43.593Z,7.60
2022-12-25T09:17:12.189Z,7.60
2022-12-25T09:19:40.723Z,7.60
2022-12-25T09:22:09.332Z,7.70
2022-12-25T09:24:39.316Z,7.70
2022-12-25T09:27:07.975Z,7.80
2022-12-25T09:29:36.536Z,7.80
2022-12-25T09:32:07.180Z,7.80
2022-12-25T09:34:35.869Z,7.90
2022-12-25T09:37:04.393Z,7.90
2022-12-25T09:39:32.974Z,7.80
2022-12-25T09:42:05.788Z,7.90
2022-12-25T09:44:38.657Z,7.90
2022-12-25T09:47:10.372Z,8.00
2022-12-25T09:49:43.342Z,8.00
2022-12-25T09:52:13.192Z,8.10
2022-12-25T09:54:51.455Z,8.10
2022-12-25T09:57:20.119Z,8.20
2022-12-25T09:59:48.782Z,8.20
2022-12-25T10:02:50.905Z,8.20
2022-12-25T10:05:48.627Z,8.20
2022-12-25T10:08:26.935Z,8.30
2022-12-25T10:11:06.588Z,8.40
2022-12-25T10:13:52.153Z,8.40
2022-12-25T10:16:32.284Z,8.40
2022-12-25T10:19:19.220Z,8.40
2022-12-25T10:21:48.633Z,8.40
2022-12-25T10:24:27.176Z,8.50
2022-12-25T10:26:57.154Z,8.50
2022-12-25T10:29:25.828Z,8.50
2022-12-25T10:31:56.947Z,8.50
2022-12-25T10:34:27.980Z,8.50
2022-12-25T10:36:56.810Z,8.50
2022-12-25T10:39:27.806Z,8.40
2022-12-25T10:42:20.125Z,8.40
2022-12-25T10:45:00.327Z,8.40
2022-12-25T10:47:32.313Z,8.50
2022-12-25T10:50:08.899Z,8.50
2022-12-25T10:52:59.872Z,8.50
2022-12-25T10:55:29.846Z,8.50
2022-12-25T10:57:59.602Z,8.50
2022-12-25T11:00:30.690Z,8.50
2022-12-25T11:03:00.304Z,8.50
2022-12-25T11:05:33.724Z,8.50
2022-12-25T11:08:04.229Z,8.50
2022-12-25T11:10:36.739Z,8.50
2022-12-25T11:13:09.103Z,8.50
2022-12-25T11:15:41.142Z,8.60
2022-12-25T11:18:22.275Z,8.60
2022-12-25T11:20:55.237Z,8.60
2022-12-25T11:23:25.403Z,8.50
2022-12-25T11:25:58.466Z,8.50
2022-12-25T11:28:30.753Z,8.60
2022-12-25T11:31:03.382Z,8.70
2022-12-25T11:33:41.135Z,8.70
2022-12-25T11:36:24.693Z,8.70
2022-12-25T11:38:57.472Z,8.70
2022-12-25T11:41:30.165Z,8.70
2022-12-25T11:44:05.473Z,8.70
2022-12-25T11:46:41.957Z,8.70
2022-12-25T11:49:19.600Z,8.70
2022-12-25T11:51:54.598Z,8.70
2022-12-25T11:54:30.285Z,8.70
2022-12-25T11:57:05.606Z,8.70
2022-12-25T11:59:39.337Z,8.70
2022-12-25T12:02:23.620Z,8.70
2022-12-25T12:05:04.015Z,8.70
2022-12-25T12:07:37.905Z,8.70
2022-12-25T12:10:16.979Z,8.70
2022-12-25T12:12:53.856Z,8.70
2022-12-25T12:15:30.674Z,8.70
2022-12-25T12:18:10.593Z,8.70
2022-12-25T12:20:42.304Z,8.70
2022-12-25T12:23:18.697Z,8.80
2022-12-25T12:25:48.643Z,8.80
2022-12-25T12:28:24.616Z,8.80
2022-12-25T12:31:05.814Z,8.80
2022-12-25T12:33:40.710Z,8.70
2022-12-25T12:36:25.120Z,8.80
2022-12-25T12:39:06.691Z,8.80
2022-12-25T12:41:47.623Z,8.80
2022-12-25T12:44:18.856Z,8.80
2022-12-25T12:46:55.806Z,8.80
2022-12-25T12:49:27.179Z,8.90
2022-12-25T12:52:07.208Z,8.90
2022-12-25T12:54:57.213Z,9.00
2022-12-25T12:57:33.251Z,9.00
2022-12-25T13:00:09.980Z,9.00
2022-12-25T13:03:03.905Z,9.00
2022-12-25T13:05:45.791Z,9.00
2022-12-25T13:08:30.145Z,9.00
2022-12-25T13:11:11.884Z,9.00
2022-12-25T13:13:44.405Z,9.00
2022-12-25T13:16:27.893Z,9.00
2022-12-25T13:18:58.744Z,9.00
2022-12-25T13:21:29.482Z,9.00
2022-12-25T13:24:00.802Z,8.90
2022-12-25T13:26:32.068Z,8.90
2022-12-25T13:29:04.979Z,8.90
2022-12-25T13:31:40.688Z,8.90
2022-12-25T13:34:26.269Z,8.90
2022-12-25T13:36:59.802Z,8.90
2022-12-25T13:39:30.288Z,8.90
2022-12-25T13:42:06.722Z,8.90
2022-12-25T13:44:44.583Z,8.90
2022-12-25T13:47:23.985Z,8.90
2022-12-25T13:49:55.543Z,8.90
2022-12-25T13:52:29.192Z,8.90
2022-12-25T13:55:01.294Z,8.90
2022-12-25T13:57:36.225Z,8.80
2022-12-25T14:00:07.830Z,8.80
2022-12-25T14:02:41.873Z,8.70
2022-12-25T14:05:29.229Z,8.70
2022-12-25T14:08:00.199Z,8.60
2022-12-25T14:10:33.139Z,8.60
2022-12-25T14:13:07.320Z,8.50
2022-12-25T14:15:38.013Z,8.50
2022-12-25T14:18:16.693Z,8.40
2022-12-25T14:20:59.358Z,8.40
2022-12-25T14:23:29.163Z,8.30
2022-12-25T14:26:01.694Z,8.30
2022-12-25T14:28:34.824Z,8.40
2022-12-25T14:31:05.093Z,8.40
2022-12-25T14:33:41.651Z,8.30
2022-12-25T14:36:15.155Z,8.30
2022-12-25T14:38:44.863Z,8.30
2022-12-25T14:41:33.703Z,8.30
2022-12-25T14:44:13.955Z,8.40
2022-12-25T14:46:43.361Z,8.40
2022-12-25T14:49:25.740Z,8.40
2022-12-25T14:51:55.282Z,8.30
2022-12-25T14:54:24.921Z,8.40
2022-12-25T14:56:56.480Z,8.40
2022-12-25T14:59:28.429Z,8.40
2022-12-25T15:02:01.302Z,8.30
2022-12-25T15:04:30.143Z,8.30
2022-12-25T15:07:00.753Z,8.30
2022-12-25T15:09:36.252Z,8.20
2022-12-25T15:12:05.963Z,8.10
2022-12-25T15:14:38.542Z,8.10
2022-12-25T15:17:07.193Z,8.10
2022-12-25T15:19:39.215Z,8.10
2022-12-25T15:22:13.874Z,8.10
2022-12-25T15:24:42.664Z,8.10
2022-12-25T15:27:21.513Z,8.00
2022-12-25T15:30:13.140Z,8.00
2022-12-25T15:32:42.874Z,7.90
2022-12-25T15:35:17.192Z,7.90
2022-12-25T15:37:48.602Z,7.90
2022-12-25T15:40:19.949Z,7.90
2022-12-25T15:42:50.923Z,7.90
2022-12-25T15:45:26.402Z,7.90
2022-12-25T15:47:58.916Z,7.90
2022-12-25T15:50:28.091Z,8.00
2022-12-25T15:52:57.694Z,7.90
2022-12-25T15:55:26.484Z,7.90
2022-12-25T15:57:56.027Z,7.80
2022-12-25T16:00:26.552Z,7.80
2022-12-25T16:02:56.108Z,7.90
2022-12-25T16:05:25.485Z,7.90
2022-12-25T16:07:54.384Z,7.90
2022-12-25T16:10:23.638Z,7.80
2022-12-25T16:12:52.366Z,7.90
2022-12-25T16:15:21.573Z,7.90
2022-12-25T16:17:52.040Z,8.00
2022-12-25T16:20:20.890Z,8.00
2022-12-25T16:22:50.304Z,8.00
2022-12-25T16:25:21.393Z,7.90
2022-12-25T16:27:50.815Z,7.90
2022-12-25T16:30:20.222Z,8.00
2022-12-25T16:32:53.561Z,8.00
2022-12-25T16:35:22.583Z,8.00
2022-12-25T16:37:51.895Z,8.00
2022-12-25T16:40:21.844Z,8.00
2022-12-25T16:42:51.532Z,8.00
2022-12-25T16:45:20.992Z,8.10
2022-12-25T16:47:54.617Z,8.10
2022-12-25T16:50:25.733Z,8.10
2022-12-25T16:52:54.311Z,8.10
2022-12-25T16:55:29.916Z,8.20
2022-12-25T16:57:59.789Z,8.20
2022-12-25T17:00:28.905Z,8.30
2022-12-25T17:02:58.319Z,8.30
2022-12-25T17:05:30.108Z,8.30
2022-12-25T17:08:03.089Z,8.30
2022-12-25T17:10:32.608Z,8.30
2022-12-25T17:13:01.829Z,8.30
2022-12-25T17:15:31.154Z,8.40
2022-12-25T17:18:00.425Z,8.40
2022-12-25T17:20:30.720Z,8.40
2022-12-25T17:23:00.187Z,8.40
2022-12-25T17:25:31.634Z,8.40
2022-12-25T17:28:00.606Z,8.30
2022-12-25T17:30:29.473Z,8.30
2022-12-25T17:32:58.263Z,8.30
2022-12-25T17:35:26.993Z,8.40
2022-12-25T17:37:58.051Z,8.30
2022-12-25T17:40:26.753Z,8.30
2022-12-25T17:42:59.255Z,8.30
2022-12-25T17:45:28.385Z,8.30
2022-12-25T17:47:58.036Z,8.40
2022-12-25T17:50:26.889Z,8.40
2022-12-25T17:52:58.530Z,8.40
2022-12-25T17:55:29.442Z,8.40
2022-12-25T17:57:58.718Z,8.40
2022-12-25T18:00:27.282Z,8.40
2022-12-25T18:02:56.539Z,8.40
2022-12-25T18:05:26.273Z,8.40
2022-12-25T18:07:56.604Z,8.40
2022-12-25T18:10:25.634Z,8.40
2022-12-25T18:12:54.822Z,8.40
2022-12-25T18:15:27.024Z,8.40
2022-12-25T18:17:56.093Z,8.40
2022-12-25T18:20:25.173Z,8.40
2022-12-25T18:22:54.123Z,8.40
2022-12-25T18:25:24.652Z,8.40
2022-12-25T18:27:55.232Z,8.40
2022-12-25T18:30:24.314Z,8.40
2022-12-25T18:32:53.663Z,8.40
2022-12-25T18:35:22.624Z,8.40
2022-12-25T18:37:52.083Z,8.40
2022-12-25T18:40:21.689Z,8.40
2022-12-25T18:42:59.382Z,8.40
2022-12-25T18:45:32.134Z,8.40
2022-12-25T18:48:03.332Z,8.40
2022-12-25T18:50:32.352Z,8.30
2022-12-25T18:53:01.619Z,8.30
2022-12-25T18:55:30.447Z,8.40
2022-12-25T18:58:01.454Z,8.40
2022-12-25T19:00:30.139Z,8.40
2022-12-25T19:03:00.265Z,8.40
2022-12-25T19:05:29.224Z,8.40
2022-12-25T19:07:58.648Z,8.40
2022-12-25T19:10:27.860Z,8.40
2022-12-25T19:12:59.844Z,8.40
2022-12-25T19:15:33.616Z,8.40
2022-12-25T19:18:03.142Z,8.30
2022-12-25T19:20:32.566Z,8.30
2022-12-25T19:23:01.590Z,8.40
2022-12-25T19:25:30.734Z,8.30
2022-12-25T19:27:59.741Z,8.30
2022-12-25T19:30:28.967Z,8.30
2022-12-25T19:32:59.500Z,8.30
2022-12-25T19:35:28.763Z,8.30
2022-12-25T19:37:57.906Z,8.30
2022-12-25T19:40:27.677Z,8.30
2022-12-25T19:42:56.912Z,8.40
2022-12-25T19:45:25.724Z,8.40
2022-12-25T19:47:56.507Z,8.40
2022-12-25T19:50:30.953Z,8.40
2022-12-25T19:53:00.049Z,8.40
2022-12-25T19:55:29.436Z,8.40
2022-12-25T19:57:59.843Z,8.40
2022-12-25T20:00:29.012Z,8.30
2022-12-25T20:02:58.137Z,8.30
2022-12-25T20:05:30.591Z,8.30
2022-12-25T20:07:59.710Z,8.30
2022-12-25T20:10:28.854Z,8.30
2022-12-25T20:12:57.974Z,8.30
2022-12-25T20:15:27.595Z,8.30
2022-12-25T20:17:56.995Z,8.30
2022-12-25T20:20:27.302Z,8.20
2022-12-25T20:22:56.878Z,8.20
2022-12-25T20:25:26.735Z,8.20
2022-12-25T20:27:57.074Z,8.10
2022-12-25T20:30:28.477Z,8.20
2022-12-25T20:32:58.044Z,8.20
2022-12-25T20:35:28.764Z,8.20
2022-12-25T20:38:00.292Z,8.30
2022-12-25T20:40:28.936Z,8.30
2022-12-25T20:42:58.028Z,8.20
2022-12-25T20:45:27.975Z,8.20
2022-12-25T20:47:57.093Z,8.20
2022-12-25T20:50:27.705Z,8.20
2022-12-25T20:52:56.870Z,8.20
2022-12-25T20:55:25.741Z,8.10
2022-12-25T20:57:54.503Z,8.20
2022-12-25T21:00:23.532Z,8.20
2022-12-25T21:02:53.087Z,8.20
2022-12-25T21:05:22.549Z,8.20
2022-12-25T21:07:52.728Z,8.20
2022-12-25T21:10:22.162Z,8.20
2022-12-25T21:12:51.493Z,8.20
2022-12-25T21:15:20.747Z,8.20
2022-12-25T21:17:49.905Z,8.20
2022-12-25T21:20:19.266Z,8.30
2022-12-25T21:22:47.828Z,8.30
2022-12-25T21:25:18.756Z,8.20
2022-12-25T21:27:47.668Z,8.20
2022-12-25T21:30:16.659Z,8.20
2022-12-25T21:33:02.904Z,8.10
2022-12-25T21:35:32.130Z,8.20
2022-12-25T21:38:04.193Z,8.20
2022-12-25T21:40:36.668Z,8.20
2022-12-25T21:43:06.105Z,8.20
2022-12-25T21:45:36.294Z,8.20
2022-12-25T21:48:05.802Z,8.20
2022-12-25T21:50:54.700Z,8.20
2022-12-25T21:53:24.234Z,8.20
2022-12-25T21:56:04.825Z,8.20
2022-12-25T21:58:33.693Z,8.20
2022-12-25T22:01:04.369Z,8.10
2022-12-25T22:03:33.026Z,8.10
2022-12-25T22:06:21.593Z,8.10
2022-12-25T22:08:50.713Z,8.10
2022-12-25T22:11:38.155Z,8.10
2022-12-25T22:14:51.144Z,8.10
2022-12-25T22:17:30.054Z,8.20
2022-12-25T22:19:58.948Z,8.20
2022-12-25T22:22:29.813Z,8.20
2022-12-25T22:24:59.964Z,8.20
2022-12-25T22:27:33.484Z,8.20
2022-12-25T22:30:02.359Z,8.20
2022-12-25T22:32:30.953Z,8.10
2022-12-25T22:35:00.562Z,8.10
2022-12-25T22:37:29.149Z,8.10
2022-12-25T22:39:57.628Z,8.00
2022-12-25T22:42:26.082Z,8.00
2022-12-25T22:44:56.209Z,8.10
2022-12-25T22:47:24.724Z,8.10
2022-12-25T22:49:56.334Z,8.10
2022-12-25T22:52:24.904Z,8.10
2022-12-25T22:54:53.386Z,8.10
2022-12-25T22:57:21.938Z,8.20
2022-12-25T22:59:52.334Z,8.10
2022-12-25T23:02:22.515Z,8.10
2022-12-25T23:04:51.115Z,8.10
2022-12-25T23:07:19.672Z,8.10
2022-12-25T23:09:48.292Z,8.10
2022-12-25T23:12:30.604Z,8.10
2022-12-25T23:14:59.499Z,8.00
2022-12-25T23:17:46.978Z,8.00
2022-12-25T23:20:34.252Z,8.00
2022-12-25T23:23:20.189Z,8.00
2022-12-25T23:26:06.164Z,8.10
2022-12-25T23:28:52.163Z,8.10
2022-12-25T23:31:23.815Z,8.10
2022-12-25T23:33:53.812Z,8.00
2022-12-25T23:36:22.516Z,8.00
2022-12-25T23:38:51.026Z,8.00
2022-12-25T23:41:19.525Z,8.10
2022-12-25T23:43:48.066Z,8.10
2022-12-25T23:46:16.676Z,8.10
2022-12-25T23:48:45.247Z,8.10
2022-12-25T23:51:15.159Z,8.10
2022-12-25T23:53:43.671Z,8.10
2022-12-25T23:56:12.164Z,8.20
2022-12-25T23:58:41.001Z,8.20
